Terminal Aerodrome Forecast
Issued by NWS

Current Version | Previous Version | Graphics & Text | Print | Product List | Glossary On
Versions: 1 2 3 4 5 6 7 8 9 10 11 12 13 14 15 16 17 18 19 20 21 22 23 24
599
FTUS41 KPBZ 181120
TAFHLG
TAF
KHLG 181120Z 1812/1912 19012KT 4SM -SHRA OVC025 WS020/22045KT
     FM181600 19012G22KT 4SM -SHRA OVC025
     FM182100 19015G25KT P6SM -SHRA OVC035
     FM190100 21015G25KT 3SM SHRA OVC025
     FM190400 28020G35KT 5SM -SHRA OVC015
     FM190800 28020G30KT P6SM -SHRASN OVC020=

USA.gov is the U.S. government's official web portal to all federal, state and local government web resources and services.